createdAt,value
2018-12-31T00:02:36.045Z,6.63
2018-12-31T00:05:18.167Z,6.27
2018-12-31T00:07:58.941Z,6.70
2018-12-31T00:10:39.644Z,6.93
2018-12-31T00:13:20.563Z,6.33
2018-12-31T00:16:01.092Z,6.10
2018-12-31T00:18:42.714Z,6.27
2018-12-31T00:21:23.458Z,6.07
2018-12-31T00:24:05.340Z,5.47
2018-12-31T00:26:46.693Z,5.57
2018-12-31T00:29:27.869Z,6.10
2018-12-31T00:32:09.817Z,6.23
2018-12-31T00:34:51.105Z,6.00
2018-12-31T00:37:31.605Z,6.47
2018-12-31T00:40:13.035Z,6.00
2018-12-31T00:42:59.011Z,5.73
2018-12-31T00:45:37.610Z,5.17
2018-12-31T00:48:06.035Z,6.00
2018-12-31T00:50:53.809Z,5.53
2018-12-31T00:53:35.010Z,5.40
2018-12-31T00:56:17.146Z,5.17
2018-12-31T00:58:57.853Z,5.43
2018-12-31T01:01:39.414Z,6.37
2018-12-31T01:04:20.121Z,5.60
2018-12-31T01:09:47.412Z,5.23
2018-12-31T01:12:35.166Z,5.67
2018-12-31T01:15:03.595Z,4.80
2018-12-31T01:17:51.630Z,5.30
2018-12-31T01:20:39.371Z,4.83
2018-12-31T01:23:21.889Z,5.27
2018-12-31T01:26:03.245Z,5.50
2018-12-31T01:28:43.777Z,5.17
2018-12-31T01:31:24.293Z,5.57
2018-12-31T01:34:06.163Z,5.03
2018-12-31T01:36:48.337Z,5.30
2018-12-31T01:39:29.542Z,5.43
2018-12-31T01:42:11.273Z,4.77
2018-12-31T01:44:53.309Z,4.83
2018-12-31T01:47:33.745Z,5.20
2018-12-31T01:50:15.012Z,4.60
2018-12-31T01:52:56.758Z,5.27
2018-12-31T01:55:37.721Z,5.53
2018-12-31T01:58:18.589Z,5.70
2018-12-31T02:00:47.003Z,5.30
2018-12-31T02:03:15.445Z,4.77
2018-12-31T02:06:23.312Z,5.23
2018-12-31T02:09:04.356Z,5.30
2018-12-31T02:11:46.348Z,5.40
2018-12-31T02:14:26.881Z,5.17
2018-12-31T02:17:08.610Z,5.63
2018-12-31T02:19:50.422Z,5.80
2018-12-31T02:22:32.722Z,5.63
2018-12-31T02:25:13.870Z,5.30
2018-12-31T02:27:56.058Z,5.70
2018-12-31T02:30:36.617Z,5.87
2018-12-31T02:33:17.281Z,5.47
2018-12-31T02:35:57.554Z,5.90
2018-12-31T02:38:39.236Z,5.57
2018-12-31T02:41:07.692Z,5.20
2018-12-31T02:44:14.764Z,5.40
2018-12-31T02:46:56.844Z,5.03
2018-12-31T02:49:38.621Z,5.60
2018-12-31T02:52:19.541Z,5.10
2018-12-31T02:55:02.051Z,4.77
2018-12-31T02:57:43.084Z,4.90
2018-12-31T03:00:24.162Z,4.93
2018-12-31T03:03:04.498Z,4.90
2018-12-31T03:05:45.062Z,5.40
2018-12-31T03:08:25.961Z,4.93
2018-12-31T03:11:06.783Z,4.93
2018-12-31T03:13:47.665Z,5.13
2018-12-31T03:16:28.744Z,4.53
2018-12-31T03:19:11.077Z,4.93
2018-12-31T03:21:52.273Z,4.13
2018-12-31T03:24:33.093Z,4.77
2018-12-31T03:27:13.854Z,4.23
2018-12-31T03:29:54.438Z,4.87
2018-12-31T03:32:36.050Z,4.43
2018-12-31T03:35:17.935Z,4.20
2018-12-31T03:37:59.163Z,4.37
2018-12-31T03:40:39.423Z,4.33
2018-12-31T03:43:20.315Z,4.63
2018-12-31T03:45:48.747Z,4.10
2018-12-31T03:48:55.860Z,4.67
2018-12-31T03:51:36.509Z,4.77
2018-12-31T03:54:17.605Z,4.87
2018-12-31T03:56:58.739Z,4.50
2018-12-31T03:59:39.411Z,4.03
2018-12-31T04:02:20.773Z,4.50
2018-12-31T04:05:01.618Z,3.60
2018-12-31T04:07:42.102Z,4.60
2018-12-31T04:10:23.948Z,3.80
2018-12-31T04:12:52.388Z,4.00
2018-12-31T04:18:48.882Z,4.43
2018-12-31T04:21:30.698Z,3.77
2018-12-31T04:24:11.409Z,4.03
2018-12-31T04:26:53.746Z,4.03
2018-12-31T04:29:35.041Z,4.07
2018-12-31T04:32:16.753Z,4.20
2018-12-31T04:34:57.395Z,3.70
2018-12-31T04:37:37.793Z,3.87
2018-12-31T04:40:19.957Z,4.07
2018-12-31T04:43:00.220Z,3.60
2018-12-31T04:45:42.575Z,4.07
2018-12-31T04:48:24.842Z,4.27
2018-12-31T04:51:06.797Z,4.03
2018-12-31T04:53:48.332Z,3.77
2018-12-31T04:56:16.781Z,4.13
2018-12-31T04:59:04.552Z,4.20
2018-12-31T05:01:52.311Z,3.90
2018-12-31T05:04:33.274Z,3.93
2018-12-31T05:07:14.129Z,3.93
2018-12-31T05:09:55.174Z,3.30
2018-12-31T05:12:35.805Z,4.07
2018-12-31T05:15:16.541Z,3.47
2018-12-31T05:17:57.436Z,3.50
2018-12-31T05:20:38.446Z,3.60
2018-12-31T05:23:18.651Z,3.90
2018-12-31T05:25:59.603Z,3.80
2018-12-31T05:28:40.507Z,3.77
2018-12-31T05:31:22.030Z,3.73
2018-12-31T05:34:03.013Z,3.67
2018-12-31T05:36:44.656Z,3.70
2018-12-31T05:39:24.980Z,3.90
2018-12-31T05:41:53.396Z,3.77
2018-12-31T05:44:41.166Z,3.77
2018-12-31T05:47:28.919Z,3.93
2018-12-31T05:50:10.793Z,3.13
2018-12-31T05:52:52.829Z,3.50
2018-12-31T05:55:33.797Z,3.73
2018-12-31T05:58:14.479Z,3.33
2018-12-31T06:00:56.924Z,3.50
2018-12-31T06:03:38.940Z,4.17
2018-12-31T06:06:20.043Z,3.20
2018-12-31T06:09:00.741Z,3.53
2018-12-31T06:11:41.719Z,3.37
2018-12-31T06:14:22.717Z,4.03
2018-12-31T06:17:05.114Z,3.73
2018-12-31T06:22:40.350Z,3.50
2018-12-31T06:25:20.663Z,3.33
2018-12-31T06:28:01.623Z,3.33
2018-12-31T06:30:42.104Z,3.33
2018-12-31T06:33:22.950Z,3.60
2018-12-31T06:36:03.643Z,3.90
2018-12-31T06:38:44.221Z,3.47
2018-12-31T06:41:26.676Z,3.73
2018-12-31T06:44:08.589Z,3.53
2018-12-31T06:46:50.413Z,3.63
2018-12-31T06:49:31.049Z,4.07
2018-12-31T06:52:13.197Z,3.77
2018-12-31T06:54:54.377Z,3.43
2018-12-31T06:57:36.562Z,3.30
2018-12-31T07:00:17.449Z,3.13
2018-12-31T07:02:58.038Z,3.00
2018-12-31T07:05:38.786Z,3.63
2018-12-31T07:08:07.200Z,3.50
2018-12-31T07:10:54.966Z,3.33
2018-12-31T07:13:37.578Z,3.83
2018-12-31T07:16:18.548Z,3.70
2018-12-31T07:18:58.903Z,3.20
2018-12-31T07:21:39.773Z,3.87
2018-12-31T07:24:20.334Z,3.73
2018-12-31T07:27:00.623Z,3.43
2018-12-31T07:29:43.068Z,3.57
2018-12-31T07:32:24.970Z,3.57
2018-12-31T07:35:07.001Z,4.37
2018-12-31T07:37:48.066Z,3.73
2018-12-31T07:40:28.770Z,4.27
2018-12-31T07:43:09.711Z,4.33
2018-12-31T07:45:50.373Z,3.93
2018-12-31T07:48:31.366Z,3.70
2018-12-31T07:51:12.138Z,4.03
2018-12-31T07:53:52.926Z,3.97
2018-12-31T07:56:35.201Z,4.20
2018-12-31T07:59:17.901Z,4.40
2018-12-31T08:01:58.758Z,5.23
2018-12-31T08:04:40.846Z,3.43
2018-12-31T08:07:22.049Z,3.77
2018-12-31T08:10:02.924Z,2.20
2018-12-31T08:12:44.799Z,2.20
2018-12-31T08:15:26.430Z,1.27
2018-12-31T08:18:08.016Z,1.67
2018-12-31T08:20:48.648Z,1.50
2018-12-31T08:23:29.200Z,1.33
2018-12-31T08:26:10.006Z,1.40
2018-12-31T08:28:50.480Z,1.43
2018-12-31T08:31:31.918Z,1.47
2018-12-31T08:34:13.537Z,1.17
2018-12-31T08:36:55.728Z,1.70
2018-12-31T08:39:36.015Z,1.43
2018-12-31T08:42:18.190Z,1.50
2018-12-31T08:44:58.965Z,1.40
2018-12-31T08:47:41.058Z,1.43
2018-12-31T08:50:22.851Z,1.73
2018-12-31T08:53:03.244Z,1.60
2018-12-31T08:55:43.883Z,1.10
2018-12-31T08:58:24.952Z,1.10
2018-12-31T09:01:05.413Z,1.33
2018-12-31T09:03:45.729Z,1.37
2018-12-31T09:06:14.160Z,1.10
2018-12-31T09:09:01.908Z,1.17
2018-12-31T09:11:43.028Z,1.40
2018-12-31T09:14:24.115Z,1.10
2018-12-31T09:17:04.654Z,1.33
2018-12-31T09:19:45.205Z,1.50
2018-12-31T09:22:13.641Z,1.40
2018-12-31T09:25:01.418Z,1.30
2018-12-31T09:27:29.900Z,1.53
2018-12-31T09:32:45.633Z,2.00
2018-12-31T09:35:25.287Z,1.63
2018-12-31T09:38:06.347Z,1.47
2018-12-31T09:40:47.998Z,1.97
2018-12-31T09:43:29.776Z,2.00
2018-12-31T09:48:55.605Z,5.93
2018-12-31T09:51:24.064Z,3.60
2018-12-31T09:54:11.818Z,2.90
2018-12-31T09:56:53.327Z,5.03
2018-12-31T09:59:33.773Z,3.80
2018-12-31T10:02:15.913Z,2.50
2018-12-31T10:04:56.792Z,2.47
2018-12-31T10:07:37.089Z,4.73
2018-12-31T10:10:17.928Z,2.93
2018-12-31T10:13:00.385Z,3.30
2018-12-31T10:15:41.237Z,4.90
2018-12-31T10:18:23.850Z,3.50
2018-12-31T10:21:05.074Z,2.87
2018-12-31T10:23:46.297Z,2.30
2018-12-31T10:26:26.822Z,3.63
2018-12-31T10:29:07.414Z,4.40
2018-12-31T10:31:48.273Z,3.40
2018-12-31T10:34:30.397Z,5.17
2018-12-31T10:37:11.566Z,4.47
2018-12-31T10:39:53.462Z,5.47
2018-12-31T10:42:34.711Z,4.20
2018-12-31T10:45:15.698Z,4.50
2018-12-31T10:47:57.518Z,3.90
2018-12-31T10:50:38.156Z,5.30
2018-12-31T10:53:19.074Z,5.53
2018-12-31T10:55:59.661Z,5.63
2018-12-31T10:58:40.117Z,4.83
2018-12-31T11:01:21.505Z,3.87
2018-12-31T11:04:03.873Z,3.87
2018-12-31T11:06:44.829Z,3.40
2018-12-31T11:09:25.713Z,4.57
2018-12-31T11:12:06.409Z,2.60
2018-12-31T11:14:46.945Z,3.00
2018-12-31T11:17:29.388Z,3.00
2018-12-31T11:20:10.418Z,2.90
2018-12-31T11:22:51.203Z,3.17
2018-12-31T11:25:33.071Z,3.10
2018-12-31T11:28:13.645Z,2.60
2018-12-31T11:30:55.497Z,2.20
2018-12-31T11:33:36.749Z,2.77
2018-12-31T11:36:18.909Z,2.40
2018-12-31T11:39:01.300Z,2.53
2018-12-31T11:41:41.656Z,2.43
2018-12-31T11:44:22.652Z,2.60
2018-12-31T11:47:04.879Z,2.50
2018-12-31T11:49:45.637Z,2.33
2018-12-31T11:52:27.618Z,2.73
2018-12-31T11:54:56.017Z,2.40
2018-12-31T11:57:43.794Z,2.80
2018-12-31T12:00:32.869Z,2.80
2018-12-31T12:03:14.151Z,2.83
2018-12-31T12:05:55.885Z,2.77
2018-12-31T12:08:36.746Z,2.27
2018-12-31T12:11:17.453Z,2.70
2018-12-31T12:13:59.700Z,2.30
2018-12-31T12:16:41.029Z,3.00
2018-12-31T12:19:22.648Z,3.33
2018-12-31T12:22:03.497Z,4.10
2018-12-31T12:24:44.067Z,2.80
2018-12-31T12:27:24.833Z,3.93
2018-12-31T12:30:06.118Z,2.90
2018-12-31T12:32:46.753Z,3.57
2018-12-31T12:35:27.079Z,3.27
2018-12-31T12:38:08.632Z,3.53
2018-12-31T12:40:49.439Z,4.53
2018-12-31T12:43:29.949Z,3.63
2018-12-31T12:46:11.018Z,3.20
2018-12-31T12:48:51.530Z,2.90
2018-12-31T12:51:32.505Z,3.03
2018-12-31T12:54:13.371Z,2.63
2018-12-31T12:56:54.972Z,3.00
2018-12-31T12:59:35.833Z,2.70
2018-12-31T13:02:04.267Z,3.33
2018-12-31T13:04:52.611Z,2.80
2018-12-31T13:07:40.625Z,2.63
2018-12-31T13:10:20.888Z,2.83
2018-12-31T13:13:01.654Z,2.53
2018-12-31T13:15:42.256Z,2.67
2018-12-31T13:18:22.737Z,2.53
2018-12-31T13:21:03.605Z,2.70
2018-12-31T13:23:45.396Z,2.87
2018-12-31T13:26:26.169Z,2.50
2018-12-31T13:29:06.758Z,3.23
2018-12-31T13:31:47.642Z,2.90
2018-12-31T13:34:32.135Z,2.67
2018-12-31T13:37:14.087Z,2.80
2018-12-31T13:39:54.578Z,3.27
2018-12-31T13:42:35.262Z,3.60
2018-12-31T13:45:16.171Z,2.23
2018-12-31T13:47:56.997Z,2.57
2018-12-31T13:50:37.845Z,2.73
2018-12-31T13:53:19.957Z,2.70
2018-12-31T13:56:00.551Z,3.23
2018-12-31T13:58:41.578Z,3.10
2018-12-31T14:01:22.095Z,2.53
2018-12-31T14:04:02.468Z,3.10
2018-12-31T14:06:44.922Z,3.00
2018-12-31T14:09:25.809Z,2.77
2018-12-31T14:12:06.925Z,2.67
2018-12-31T14:14:47.574Z,2.93
2018-12-31T14:17:28.310Z,2.70
2018-12-31T14:20:09.830Z,3.30
2018-12-31T14:22:50.225Z,3.83
2018-12-31T14:25:30.973Z,3.27
2018-12-31T14:28:11.829Z,3.30
2018-12-31T14:30:52.273Z,3.00
2018-12-31T14:33:32.845Z,3.70
2018-12-31T14:36:13.878Z,4.40
2018-12-31T14:38:42.306Z,4.03
2018-12-31T14:44:20.170Z,3.60
2018-12-31T14:47:08.207Z,2.90
2018-12-31T14:50:15.406Z,3.27
2018-12-31T14:52:56.393Z,3.10
2018-12-31T14:55:37.802Z,2.97
2018-12-31T14:58:18.333Z,2.57
2018-12-31T15:00:59.288Z,3.30
2018-12-31T15:03:39.817Z,3.07
2018-12-31T15:06:20.793Z,3.30
2018-12-31T15:09:02.665Z,3.27
2018-12-31T15:11:43.597Z,3.43
2018-12-31T15:14:24.890Z,5.00
2018-12-31T15:17:05.697Z,5.07
2018-12-31T15:19:46.338Z,3.30
2018-12-31T15:22:29.282Z,3.40
2018-12-31T15:25:11.169Z,3.20
2018-12-31T15:27:54.683Z,3.70
2018-12-31T15:30:35.841Z,3.77
2018-12-31T15:33:16.938Z,3.37
2018-12-31T15:35:45.366Z,4.00
2018-12-31T15:38:33.801Z,3.63
2018-12-31T15:41:43.540Z,3.83
2018-12-31T15:44:24.645Z,4.23
2018-12-31T15:47:05.571Z,3.73
2018-12-31T15:49:46.270Z,4.40
2018-12-31T15:52:27.365Z,3.60
2018-12-31T15:55:08.730Z,4.27
2018-12-31T15:57:49.357Z,4.13
2018-12-31T16:00:18.065Z,4.50
2018-12-31T16:03:06.197Z,4.13
2018-12-31T16:05:48.491Z,4.43
2018-12-31T16:08:29.653Z,4.63
2018-12-31T16:11:10.841Z,4.30
2018-12-31T16:13:51.580Z,5.60
2018-12-31T16:16:32.314Z,5.00
2018-12-31T16:19:12.797Z,4.40
2018-12-31T16:21:54.225Z,5.17
2018-12-31T16:24:34.881Z,4.47
2018-12-31T16:27:15.549Z,4.40
2018-12-31T16:29:56.023Z,4.83
2018-12-31T16:32:37.163Z,4.80
2018-12-31T16:35:18.537Z,4.60
2018-12-31T16:38:00.546Z,4.47
2018-12-31T16:40:41.680Z,4.50
2018-12-31T16:43:23.246Z,4.10
2018-12-31T16:46:04.784Z,5.60
2018-12-31T16:48:45.150Z,4.70
2018-12-31T16:51:26.317Z,5.80
2018-12-31T16:54:07.112Z,6.80
2018-12-31T16:56:48.210Z,6.53
2018-12-31T16:59:29.347Z,6.47
2018-12-31T17:02:11.195Z,5.50
2018-12-31T17:04:39.983Z,5.80
2018-12-31T17:07:28.488Z,6.40
2018-12-31T17:10:10.387Z,7.20
2018-12-31T17:12:51.723Z,5.67
2018-12-31T17:15:32.898Z,6.73
2018-12-31T17:21:18.543Z,5.93
2018-12-31T17:23:59.473Z,6.67
2018-12-31T17:26:42.167Z,6.97
2018-12-31T17:29:23.140Z,5.93
2018-12-31T17:32:04.061Z,5.70
2018-12-31T17:34:44.898Z,5.57
2018-12-31T17:37:25.969Z,6.47
2018-12-31T17:40:06.920Z,6.43
2018-12-31T17:42:48.405Z,4.57
2018-12-31T17:45:28.361Z,5.83
2018-12-31T17:48:09.680Z,5.40
2018-12-31T17:50:50.808Z,5.17
2018-12-31T17:53:32.119Z,5.03
2018-12-31T17:56:13.367Z,4.30
2018-12-31T17:58:54.703Z,4.70
2018-12-31T18:01:35.363Z,4.23
2018-12-31T18:04:16.044Z,3.83
2018-12-31T18:06:56.795Z,4.27
2018-12-31T18:09:38.533Z,4.70
2018-12-31T18:12:19.227Z,4.03
2018-12-31T18:15:00.710Z,4.77
2018-12-31T18:17:41.332Z,4.63
2018-12-31T18:20:22.183Z,4.77
2018-12-31T18:22:50.597Z,4.53
2018-12-31T18:25:38.629Z,4.73
2018-12-31T18:31:27.945Z,14.57
2018-12-31T18:34:08.844Z,19.03
2018-12-31T18:36:50.191Z,19.60
2018-12-31T18:39:31.656Z,17.73
2018-12-31T18:42:11.653Z,20.87
2018-12-31T18:44:52.418Z,26.33
2018-12-31T18:47:34.260Z,27.67
2018-12-31T18:50:15.249Z,26.20
2018-12-31T18:52:56.341Z,30.40
2018-12-31T18:55:37.533Z,30.43
2018-12-31T18:58:18.513Z,29.97
2018-12-31T19:00:46.940Z,31.23
2018-12-31T19:03:34.965Z,32.93
2018-12-31T19:06:15.692Z,37.30
2018-12-31T19:08:57.058Z,34.93
2018-12-31T19:11:39.508Z,39.23
2018-12-31T19:14:20.398Z,34.27
2018-12-31T19:17:01.014Z,35.40
2018-12-31T19:19:41.505Z,33.47
2018-12-31T19:22:21.949Z,43.63
2018-12-31T19:24:50.401Z,36.40
2018-12-31T19:30:45.384Z,24.60
2018-12-31T19:33:26.641Z,34.07
2018-12-31T19:36:07.290Z,31.90
2018-12-31T19:38:48.073Z,26.43
2018-12-31T19:41:28.039Z,27.90
2018-12-31T19:44:09.166Z,27.83
2018-12-31T19:46:49.486Z,23.03
2018-12-31T19:49:30.150Z,23.63
2018-12-31T19:52:12.169Z,24.50
2018-12-31T19:54:52.961Z,22.00
2018-12-31T19:57:33.709Z,18.60
2018-12-31T20:00:14.940Z,20.37
2018-12-31T20:02:55.981Z,18.87
2018-12-31T20:05:37.152Z,17.13
2018-12-31T20:08:05.596Z,16.97
2018-12-31T20:10:53.733Z,17.37
2018-12-31T20:13:34.530Z,16.50
2018-12-31T20:16:15.050Z,15.53
2018-12-31T20:18:56.381Z,20.57
2018-12-31T20:21:36.849Z,44.07
2018-12-31T20:24:17.357Z,36.60
2018-12-31T20:26:58.251Z,21.90
2018-12-31T20:29:26.657Z,22.33
2018-12-31T20:31:55.096Z,21.87
2018-12-31T20:34:43.105Z,18.67
2018-12-31T20:37:23.706Z,16.47
2018-12-31T20:40:04.383Z,17.20
2018-12-31T20:42:44.977Z,22.57
2018-12-31T20:45:25.709Z,19.77
2018-12-31T20:48:06.627Z,22.30
2018-12-31T20:50:47.682Z,24.73
2018-12-31T20:53:28.720Z,24.37
2018-12-31T20:56:09.499Z,26.13
2018-12-31T20:58:50.275Z,26.00
2018-12-31T21:01:31.700Z,25.53
2018-12-31T21:04:00.139Z,24.17
2018-12-31T21:09:54.325Z,44.57
2018-12-31T21:12:35.627Z,38.17
2018-12-31T21:15:16.649Z,48.03
2018-12-31T21:17:58.036Z,49.80
2018-12-31T21:20:38.753Z,49.40
2018-12-31T21:23:19.610Z,48.57
2018-12-31T21:26:00.786Z,50.07
2018-12-31T21:28:41.470Z,49.40
2018-12-31T21:31:22.506Z,46.67
2018-12-31T21:33:50.950Z,45.80
2018-12-31T21:36:38.705Z,42.33
2018-12-31T21:39:19.757Z,45.23
2018-12-31T21:42:01.686Z,47.00
2018-12-31T21:44:42.241Z,42.13
2018-12-31T21:47:22.090Z,46.37
2018-12-31T21:50:03.203Z,51.07
2018-12-31T21:52:43.957Z,43.97
2018-12-31T21:55:25.670Z,35.87
2018-12-31T21:58:06.155Z,33.00
2018-12-31T22:00:46.750Z,27.83
2018-12-31T22:03:27.265Z,25.17
2018-12-31T22:06:08.550Z,24.63
2018-12-31T22:08:50.072Z,25.30
2018-12-31T22:11:30.973Z,21.70
2018-12-31T22:14:11.827Z,24.20
2018-12-31T22:16:52.330Z,23.13
2018-12-31T22:19:33.003Z,25.47
2018-12-31T22:22:13.511Z,28.00
2018-12-31T22:24:53.999Z,27.20
2018-12-31T22:27:34.723Z,25.30
2018-12-31T22:30:15.754Z,27.43
2018-12-31T22:32:56.203Z,22.10
2018-12-31T22:35:36.987Z,24.73
2018-12-31T22:38:05.438Z,25.30
2018-12-31T22:40:33.913Z,25.93
2018-12-31T22:43:21.693Z,28.47
2018-12-31T22:46:10.104Z,27.07
2018-12-31T22:48:50.952Z,27.47
2018-12-31T22:51:32.729Z,28.90
2018-12-31T22:54:13.165Z,26.47
2018-12-31T22:56:54.256Z,33.33
2018-12-31T22:59:35.520Z,28.43
2018-12-31T23:02:16.629Z,30.23
2018-12-31T23:04:58.010Z,29.20
2018-12-31T23:07:26.444Z,24.90
2018-12-31T23:10:14.484Z,23.77
2018-12-31T23:13:02.925Z,25.57
2018-12-31T23:15:44.059Z,28.43
2018-12-31T23:18:24.652Z,55.57
2018-12-31T23:21:05.455Z,84.43
2018-12-31T23:23:45.389Z,120.50
2018-12-31T23:26:27.217Z,96.83
2018-12-31T23:29:09.482Z,164.97
2018-12-31T23:31:52.238Z,204.17
2018-12-31T23:34:33.557Z,284.27
2018-12-31T23:37:14.273Z,262.10
2018-12-31T23:39:55.897Z,295.37
2018-12-31T23:42:37.009Z,342.37
2018-12-31T23:45:17.962Z,376.73
2018-12-31T23:47:58.877Z,314.17
2018-12-31T23:50:40.125Z,348.93
2018-12-31T23:53:21.497Z,318.67
2018-12-31T23:56:02.139Z,280.20
2018-12-31T23:58:42.972Z,214.73
